Butternut Basin, Massachusetts
Current Conditions -  °F | °C
As of 6:54 AM on Sunday 23 Nov 2014 (Local Time) from KPSF Reporting Station
Haze Haze  
Wind Chill: 35°   Ceiling: 2800
Heat Index: 35°   Visibility: 5mi
Dew Point: 33°   Wind: 0mph
Humidity: 92%   Direction: NA
Pressure: 30.08"   Gusts: NA
Location:  42.19°N, 73.31°W
Report Text: KPSF 231154Z AUTO 00000KT 5SM BR OVC028 02/01 A3008 RMK AO2 SLP193 60004 70011 T00170006 10017 20006 53007 $
Loading
Personal Weather Stations






























Interactive Weather Map New forecast layout! Learn more

10-Day Weather Forecast

Advertisements
Track Severe Weather on mobile